Time;durP1;ratioP1;P1;durP2;ratioP2;P2;SDS_P1;SDS_P2;PMS_P1;PMS_P2;Temp;Humidity;BMP_temperature;BMP_pressure;BME280_temperature;BME280_humidity;BME280_pressure;Samples;Min_cycle;Max_cycle;Signal;HPM_P1;HPM_P2
2022/06/16 00:00:53;;;;;;;3.63;2.65;;;;;;;17.14;67.27;95921.41;5032383;28;24467;-75
2022/06/16 00:03:19;;;;;;;4.90;2.92;;;;;;;16.86;68.63;95929.97;5034025;28;24844;-75
2022/06/16 00:05:46;;;;;;;5.87;2.43;;;;;;;16.73;69.73;95931.97;5033612;28;24518;-75
2022/06/16 00:08:16;;;;;;;3.03;2.37;;;;;;;16.69;69.45;95932.22;5033650;28;24440;-74
2022/06/16 00:11:16;;;;;;;2.92;2.22;;;;;;;16.61;69.64;95933.78;5033677;28;24444;-75
2022/06/16 00:13:33;;;;;;;4.75;2.60;;;;;;;16.56;69.13;95922.91;5033611;28;24781;-76
2022/06/16 00:15:59;;;;;;;3.10;2.40;;;;;;;16.45;68.98;95921.19;5025554;28;24479;-75
2022/06/16 00:18:26;;;;;;;3.45;2.30;;;;;;;16.27;69.74;95913.09;5033825;28;24443;-75
2022/06/16 00:20:53;;;;;;;4.47;2.83;;;;;;;16.31;69.82;95905.81;5033825;28;24447;-75
2022/06/16 00:23:20;;;;;;;3.55;2.40;;;;;;;16.21;70.87;95906.59;5033494;28;24972;-75
2022/06/16 00:25:46;;;;;;;4.20;2.65;;;;;;;16.14;71.15;95907.25;5033172;28;24993;-75
2022/06/16 00:28:13;;;;;;;10.57;2.70;;;;;;;16.24;70.71;95904.69;5033598;28;24512;-75
2022/06/16 00:30:41;;;;;;;4.20;2.83;;;;;;;16.27;71.33;95905.25;5033141;28;25007;-75
2022/06/16 00:33:08;;;;;;;8.80;2.78;;;;;;;16.30;71.52;95902.38;5019858;28;24959;-75
2022/06/16 00:35:34;;;;;;;3.85;2.33;;;;;;;16.29;71.31;95903.34;5033310;28;24431;-75
2022/06/16 00:38:00;;;;;;;3.55;2.85;;;;;;;16.29;70.95;95897.31;5033698;28;24412;-76
2022/06/16 00:40:27;;;;;;;3.03;2.53;;;;;;;16.31;70.60;95901.44;5033493;28;24427;-76
2022/06/16 00:42:53;;;;;;;3.38;3.00;;;;;;;16.37;70.23;95898.31;5033552;28;24486;-75
2022/06/16 00:45:45;;;;;;;5.47;2.85;;;;;;;16.38;69.66;95899.97;5033011;28;24466;-75
2022/06/16 00:48:16;;;;;;;3.28;2.80;;;;;;;16.49;69.49;95899.06;5033208;28;24459;-74
2022/06/16 00:50:45;;;;;;;3.53;2.92;;;;;;;16.50;69.27;95890.28;5032991;28;24523;-75
2022/06/16 00:53:11;;;;;;;4.10;2.53;;;;;;;16.52;69.30;95884.91;5032713;28;24484;-75
2022/06/16 00:55:38;;;;;;;2.90;2.60;;;;;;;16.58;68.53;95889.63;5032897;28;24466;-75
2022/06/16 00:58:05;;;;;;;3.08;2.50;;;;;;;16.59;68.41;95896.50;5032398;28;24507;-76
2022/06/16 01:00:32;;;;;;;2.90;2.50;;;;;;;16.51;68.65;95891.94;5032767;28;25008;-75
2022/06/16 01:03:00;;;;;;;6.10;2.50;;;;;;;16.43;69.83;95897.81;5032731;28;24486;-75
2022/06/16 01:05:25;;;;;;;8.45;2.55;;;;;;;16.39;70.50;95893.78;5032761;28;24455;-75
2022/06/16 01:07:54;;;;;;;4.07;2.60;;;;;;;16.26;71.25;95887.09;5032653;28;24435;-74
2022/06/16 01:10:21;;;;;;;6.82;2.65;;;;;;;16.13;72.54;95879.44;5032593;28;24440;-76
2022/06/16 01:15:55;;;;;;;3.50;2.30;;;;;;;16.03;72.67;95881.19;5019022;28;24411;-75
2022/06/16 01:18:31;;;;;;;4.38;2.65;;;;;;;16.01;72.94;95872.63;5032631;28;24442;-75
2022/06/16 01:21:06;;;;;;;2.67;2.25;;;;;;;15.83;72.00;95878.41;5031870;28;24436;-75
2022/06/16 01:23:51;;;;;;;3.30;2.40;;;;;;;15.91;73.17;95881.25;5023483;28;24994;-76
2022/06/16 01:26:51;;;;;;;4.00;2.28;;;;;;;15.92;73.29;95869.00;5032110;28;24519;-75
2022/06/16 01:29:26;;;;;;;4.97;2.63;;;;;;;15.93;72.91;95868.03;5001508;28;24447;-75
2022/06/16 01:32:00;;;;;;;4.65;2.33;;;;;;;15.81;73.93;95871.66;5032412;28;24476;-75
2022/06/16 01:34:35;;;;;;;3.05;2.22;;;;;;;15.71;73.76;95866.34;5032376;28;24439;-74
2022/06/16 01:37:11;;;;;;;4.30;2.63;;;;;;;15.60;74.09;95869.81;5031842;28;24985;-75
2022/06/16 01:39:45;;;;;;;2.55;2.15;;;;;;;15.39;76.23;95867.16;5016763;28;24443;-75
2022/06/16 01:42:18;;;;;;;3.42;2.20;;;;;;;15.39;75.04;95864.56;5032311;28;24432;-74
2022/06/16 01:44:55;;;;;;;3.38;2.70;;;;;;;15.37;75.50;95863.03;5032259;28;24462;-75
2022/06/16 01:47:24;;;;;;;5.15;2.50;;;;;;;15.25;76.33;95863.06;5031694;28;24446;-75
2022/06/16 01:49:54;;;;;;;4.25;2.70;;;;;;;15.15;76.26;95862.13;5032006;28;24439;-76
2022/06/16 01:52:27;;;;;;;6.30;2.83;;;;;;;15.26;75.69;95869.09;5032519;28;24822;-74
2022/06/16 01:55:00;;;;;;;2.88;2.67;;;;;;;15.27;76.44;95862.91;5032460;28;24430;-75
2022/06/16 01:57:31;;;;;;;3.50;2.30;;;;;;;15.28;76.77;95861.13;5032236;28;24474;-74
2022/06/16 02:00:06;;;;;;;3.10;2.40;;;;;;;15.35;76.08;95857.06;5032296;28;24435;-75
2022/06/16 02:02:37;;;;;;;4.22;3.00;;;;;;;15.35;76.21;95863.16;5032505;28;24426;-74
2022/06/16 02:05:08;;;;;;;3.70;2.60;;;;;;;15.39;75.58;95863.75;5032239;28;24431;-76
2022/06/16 02:07:38;;;;;;;6.18;2.92;;;;;;;15.39;75.89;95863.75;5032302;28;24426;-74
2022/06/16 02:10:11;;;;;;;2.90;2.15;;;;;;;15.43;75.95;95867.75;5032115;28;24435;-75
2022/06/16 02:12:56;;;;;;;4.95;2.47;;;;;;;15.47;75.38;95861.34;5032168;28;24412;-74
2022/06/16 02:15:34;;;;;;;3.50;2.53;;;;;;;15.52;75.37;95858.34;5031596;28;24419;-74
2022/06/16 02:18:02;;;;;;;3.00;2.40;;;;;;;15.58;74.23;95858.69;5031859;28;24447;-75
2022/06/16 02:20:39;;;;;;;3.00;2.28;;;;;;;15.57;74.32;95846.56;5031959;28;24435;-74
2022/06/16 02:23:05;;;;;;;3.28;2.75;;;;;;;15.55;74.05;95851.09;5032040;28;24424;-75
2022/06/16 02:25:32;;;;;;;3.08;2.47;;;;;;;15.51;74.45;95846.25;5031138;28;24451;-75
2022/06/16 02:27:58;;;;;;;2.78;2.53;;;;;;;15.51;74.51;95836.63;5031749;28;24443;-75
2022/06/16 02:30:31;;;;;;;4.95;2.47;;;;;;;15.61;74.45;95839.31;5031451;28;24444;-74
2022/06/16 02:33:05;;;;;;;3.13;2.00;;;;;;;15.30;76.79;95833.16;5031474;28;24450;-75
2022/06/16 02:35:37;;;;;;;2.60;2.20;;;;;;;15.24;76.88;95832.69;5019715;28;24439;-75
2022/06/16 02:38:19;;;;;;;2.45;1.98;;;;;;;15.27;76.64;95841.22;5028238;28;24519;-76
2022/06/16 02:41:09;;;;;;;2.73;2.47;;;;;;;15.35;75.70;95849.25;5011863;28;24803;-74
2022/06/16 02:43:57;;;;;;;3.70;2.50;;;;;;;15.16;76.62;95852.50;5011709;28;24818;-74
2022/06/16 02:46:38;;;;;;;2.25;2.05;;;;;;;15.03;77.68;95847.44;5011172;28;24514;-74
2022/06/16 02:49:17;;;;;;;2.50;2.20;;;;;;;14.99;77.31;95846.88;5011538;28;24829;-74
2022/06/16 02:51:52;;;;;;;4.00;2.55;;;;;;;15.03;77.12;95844.00;5011486;28;24496;-75
2022/06/16 02:54:25;;;;;;;2.97;2.50;;;;;;;15.07;77.52;95827.16;5012826;28;24428;-75
2022/06/16 02:56:58;;;;;;;3.80;2.80;;;;;;;14.84;79.41;95835.03;5030769;28;24852;-75
2022/06/16 02:59:29;;;;;;;4.22;3.20;;;;;;;14.55;81.63;95831.28;5030555;28;24443;-75
2022/06/16 03:02:04;;;;;;;3.55;2.60;;;;;;;14.37;83.01;95829.09;5011595;28;24428;-75
2022/06/16 03:04:37;;;;;;;4.65;2.75;;;;;;;14.43;82.68;95838.22;5029706;28;24446;-76
2022/06/16 03:07:04;;;;;;;4.22;2.95;;;;;;;14.52;82.69;95838.38;5029725;28;24459;-77
2022/06/16 03:09:31;;;;;;;4.95;3.00;;;;;;;14.63;81.94;95840.13;5028817;28;24647;-76
2022/06/16 03:11:58;;;;;;;2.88;2.50;;;;;;;14.72;81.15;95843.81;5025260;28;24431;-76
2022/06/16 03:14:24;;;;;;;2.90;2.65;;;;;;;14.76;80.67;95837.44;5025597;28;24424;-75
2022/06/16 03:16:51;;;;;;;4.73;2.43;;;;;;;14.66;79.85;95842.50;5029081;28;24504;-77
2022/06/16 03:19:20;;;;;;;3.33;2.47;;;;;;;14.69;80.40;95839.69;5029019;28;24436;-77
2022/06/16 03:21:46;;;;;;;3.92;2.70;;;;;;;14.85;79.86;95846.28;5028011;28;24969;-76
2022/06/16 03:24:13;;;;;;;2.65;2.45;;;;;;;14.95;79.45;95842.84;5028621;28;24440;-77
2022/06/16 03:26:39;;;;;;;3.28;2.60;;;;;;;14.88;78.60;95843.44;5030005;28;24498;-76
2022/06/16 03:29:06;;;;;;;3.00;2.47;;;;;;;14.95;78.56;95850.66;5029928;28;24435;-75
2022/06/16 03:31:33;;;;;;;4.47;2.60;;;;;;;14.91;78.50;95856.25;5021590;28;24458;-76
2022/06/16 03:33:59;;;;;;;2.53;2.25;;;;;;;15.06;79.01;95864.66;5029824;28;24447;-75
2022/06/16 03:36:27;;;;;;;3.90;2.15;;;;;;;15.18;78.63;95850.63;5029594;28;24443;-76
2022/06/16 03:38:54;;;;;;;3.55;2.67;;;;;;;15.28;77.84;95855.91;5029902;28;24459;-76
2022/06/16 03:41:20;;;;;;;4.45;2.65;;;;;;;15.31;78.19;95863.50;5030185;28;24856;-75
2022/06/16 03:43:47;;;;;;;4.47;2.20;;;;;;;15.38;77.72;95868.09;5030077;28;24435;-75
2022/06/16 03:46:14;;;;;;;5.43;2.63;;;;;;;15.46;77.40;95865.72;5027438;28;24538;-75
2022/06/16 03:48:41;;;;;;;4.18;2.85;;;;;;;15.37;76.40;95871.66;5020852;28;24476;-75
2022/06/16 03:51:09;;;;;;;3.58;2.50;;;;;;;15.34;76.15;95871.09;5029461;28;24436;-75
2022/06/16 03:53:37;;;;;;;3.45;2.17;;;;;;;15.65;84.64;95870.31;5030158;28;24912;-75
2022/06/16 03:56:04;;;;;;;5.25;2.58;;;;;;;15.61;86.43;95868.03;5029328;28;24797;-75
2022/06/16 03:58:30;;;;;;;3.17;2.60;;;;;;;15.52;87.12;95867.00;5030146;28;24486;-75
2022/06/16 04:00:57;;;;;;;3.42;2.63;;;;;;;15.57;84.53;95871.84;5029473;28;24448;-75
2022/06/16 04:06:06;;;;;;;3.83;2.88;;;;;;;15.31;86.47;95871.31;5022846;28;25011;-78
2022/06/16 04:08:33;;;;;;;4.30;2.80;;;;;;;15.37;87.23;95865.63;5030026;28;24431;-76
2022/06/16 04:11:26;;;;;;;4.53;3.10;;;;;;;15.60;83.26;95877.63;5029730;28;24482;-77
2022/06/16 04:13:47;;;;;;;5.25;3.13;;;;;;;15.35;84.26;95884.03;5030066;28;24435;-81
2022/06/16 04:16:14;;;;;;;3.75;2.38;;;;;;;15.30;83.04;95890.56;5028963;28;24436;-76
2022/06/16 04:18:40;;;;;;;4.28;2.67;;;;;;;15.44;83.95;95885.88;5029140;28;24459;-76
2022/06/16 04:21:07;;;;;;;5.07;3.30;;;;;;;15.39;84.84;95890.66;5030058;28;24432;-75
2022/06/16 04:23:34;;;;;;;7.00;3.20;;;;;;;15.62;84.91;95890.59;5030361;28;24467;-76
2022/06/16 04:26:02;;;;;;;4.22;2.78;;;;;;;15.63;84.13;95893.06;5029794;28;25023;-75
2022/06/16 04:28:28;;;;;;;4.43;3.33;;;;;;;15.36;83.78;95892.69;5030184;28;24470;-75
2022/06/16 04:30:55;;;;;;;3.28;2.47;;;;;;;15.41;84.94;95886.13;5030065;28;24424;-75
2022/06/16 04:33:22;;;;;;;3.30;3.00;;;;;;;15.35;87.35;95896.22;5030552;28;24427;-75
2022/06/16 04:35:48;;;;;;;3.53;2.85;;;;;;;15.44;85.28;95891.09;5033174;28;24435;-75
2022/06/16 04:38:15;;;;;;;3.45;3.15;;;;;;;15.57;81.53;95892.72;5033584;28;24415;-76
2022/06/16 04:40:41;;;;;;;3.10;2.80;;;;;;;15.52;83.41;95890.50;5033272;28;24515;-75
2022/06/16 04:43:10;;;;;;;3.40;2.70;;;;;;;15.43;80.76;95891.25;5033059;28;24425;-75
2022/06/16 04:45:37;;;;;;;3.65;2.88;;;;;;;15.47;81.98;95892.66;5033042;28;25019;-76
2022/06/16 04:48:04;;;;;;;4.35;3.13;;;;;;;15.55;82.54;95889.41;5033277;28;24439;-76
2022/06/16 04:50:31;;;;;;;6.82;3.50;;;;;;;15.68;83.85;95890.97;5033267;28;24428;-77
2022/06/16 04:52:57;;;;;;;4.22;2.90;;;;;;;15.83;84.10;95890.63;5034687;28;24424;-77
2022/06/16 04:55:23;;;;;;;4.43;2.88;;;;;;;15.97;86.47;95885.94;5034436;28;24833;-77
2022/06/16 04:57:50;;;;;;;6.80;3.00;;;;;;;16.07;84.42;95888.63;5034826;28;24420;-77
2022/06/16 05:00:18;;;;;;;3.38;3.08;;;;;;;16.12;84.35;95894.28;5034517;28;24436;-77
2022/06/16 05:02:45;;;;;;;3.58;2.65;;;;;;;16.24;83.23;95896.84;5033310;28;24424;-77
2022/06/16 05:05:11;;;;;;;3.90;3.10;;;;;;;16.32;81.76;95897.88;5032640;28;24423;-76
2022/06/16 05:07:38;;;;;;;3.70;2.92;;;;;;;16.42;79.56;95895.31;5032760;28;24444;-77
2022/06/16 05:10:05;;;;;;;4.18;3.10;;;;;;;16.52;75.75;95893.56;5032600;28;24790;-77
2022/06/16 05:12:32;;;;;;;4.47;2.78;;;;;;;16.62;74.60;95885.78;5033194;28;24428;-76
2022/06/16 05:14:58;;;;;;;4.10;2.78;;;;;;;16.45;72.95;95892.44;5032673;28;24961;-76
2022/06/16 05:17:26;;;;;;;3.38;2.80;;;;;;;16.37;72.30;95894.88;5032486;28;25011;-75
2022/06/16 05:19:53;;;;;;;2.72;2.35;;;;;;;16.44;71.70;95893.41;5032640;28;24430;-74
2022/06/16 05:22:20;;;;;;;6.40;2.70;;;;;;;16.54;72.25;95898.66;5032762;28;24454;-75
2022/06/16 05:24:46;;;;;;;4.80;2.92;;;;;;;16.61;74.17;95898.03;5032579;28;24435;-74
2022/06/16 05:27:13;;;;;;;16.67;2.88;;;;;;;16.98;86.74;95907.16;5032536;28;24908;-74
2022/06/16 05:29:39;;;;;;;4.10;2.80;;;;;;;17.27;85.81;95912.47;5032657;28;24439;-74
2022/06/16 05:32:06;;;;;;;4.60;2.78;;;;;;;17.42;83.60;95903.28;5032563;28;24419;-75
2022/06/16 05:34:35;;;;;;;4.07;2.83;;;;;;;17.72;82.12;95909.38;5032496;28;24428;-74
2022/06/16 05:37:02;;;;;;;3.38;2.60;;;;;;;17.72;81.68;95906.75;5032068;28;24426;-74
2022/06/16 05:39:28;;;;;;;5.57;3.35;;;;;;;17.75;79.53;95922.22;5032184;28;24431;-74
2022/06/16 05:41:55;;;;;;;6.07;3.37;;;;;;;17.75;76.82;95916.97;5032541;28;24419;-75
2022/06/16 05:44:21;;;;;;;3.83;2.90;;;;;;;17.75;72.96;95919.59;5032192;28;24426;-74
2022/06/16 05:46:48;;;;;;;3.33;2.90;;;;;;;17.84;76.90;95913.59;5031885;28;24494;-75
2022/06/16 05:49:16;;;;;;;3.28;2.88;;;;;;;18.01;72.86;95928.59;5032051;28;24448;-75
2022/06/16 05:51:44;;;;;;;4.25;2.95;;;;;;;18.09;73.90;95923.47;5031995;28;24455;-75
2022/06/16 05:54:10;;;;;;;3.40;2.83;;;;;;;18.02;72.15;95918.94;5032149;28;24463;-75
2022/06/16 05:56:37;;;;;;;3.97;2.70;;;;;;;18.02;74.22;95930.28;5031805;28;24420;-75
2022/06/16 05:59:03;;;;;;;5.95;2.97;;;;;;;17.97;74.13;95927.22;5031923;28;24929;-74
2022/06/16 06:01:30;;;;;;;4.53;2.70;;;;;;;17.97;74.52;95927.22;5031954;28;24508;-75
2022/06/16 06:03:56;;;;;;;2.92;2.63;;;;;;;18.04;72.34;95923.09;5032027;28;24420;-74
2022/06/16 06:06:23;;;;;;;3.75;2.90;;;;;;;18.41;70.71;95927.59;5031333;28;24821;-75
2022/06/16 06:17:15;;;;;;;5.15;3.35;;;;;;;19.15;71.90;95926.84;5011708;28;24411;-74
2022/06/16 06:19:42;;;;;;;6.53;3.20;;;;;;;19.24;72.91;95928.59;5012109;28;24448;-76
2022/06/16 06:22:13;;;;;;;4.30;3.15;;;;;;;19.21;65.16;95923.66;5011968;28;24423;-75
2022/06/16 06:24:44;;;;;;;3.75;3.17;;;;;;;19.21;63.73;95926.28;5011814;28;24428;-76
2022/06/16 06:27:15;;;;;;;4.18;2.65;;;;;;;19.47;62.86;95923.81;5015867;28;24443;-75
2022/06/16 06:29:42;;;;;;;4.87;3.00;;;;;;;19.73;60.94;95933.63;5017658;28;24593;-76
2022/06/16 06:32:10;;;;;;;6.43;3.00;;;;;;;19.99;58.76;95934.53;5031576;28;24424;-76
2022/06/16 06:34:37;;;;;;;3.47;2.80;;;;;;;20.11;58.68;95931.69;5031347;28;24419;-76
2022/06/16 06:37:05;;;;;;;7.90;2.87;;;;;;;20.30;58.13;95936.78;5031043;28;24620;-75
2022/06/16 06:39:32;;;;;;;4.00;2.80;;;;;;;20.32;57.86;95940.09;5031074;28;24427;-76
2022/06/16 06:42:03;;;;;;;4.10;2.80;;;;;;;20.66;59.08;95936.75;5030932;28;24514;-76
2022/06/16 06:44:30;;;;;;;3.90;2.92;;;;;;;20.91;58.62;95949.09;5031140;28;25220;-76
2022/06/16 06:46:56;;;;;;;4.60;2.83;;;;;;;21.15;57.19;95937.84;5031027;28;24439;-76
2022/06/16 06:49:22;;;;;;;3.72;2.63;;;;;;;21.18;57.02;95947.25;5031011;28;24416;-75
2022/06/16 06:51:49;;;;;;;7.03;2.85;;;;;;;21.48;57.63;95959.09;5031100;28;24415;-76
2022/06/16 06:54:17;;;;;;;6.18;3.40;;;;;;;21.38;57.46;95956.56;5031035;28;24538;-76
2022/06/16 06:56:45;;;;;;;4.30;2.72;;;;;;;21.33;57.54;95953.59;5029923;28;24532;-75
2022/06/16 06:59:18;;;;;;;2.83;2.58;;;;;;;21.15;58.56;95955.44;5030844;28;24462;-75
2022/06/16 07:01:45;;;;;;;4.43;2.80;;;;;;;21.60;61.77;95955.16;5030778;28;24423;-75
2022/06/16 07:04:11;;;;;;;6.03;2.53;;;;;;;21.93;58.29;95957.91;5030846;28;24431;-75
2022/06/16 07:06:38;;;;;;;3.20;2.50;;;;;;;22.42;58.93;95955.34;5030604;28;24458;-76
2022/06/16 07:09:04;;;;;;;5.90;2.67;;;;;;;22.36;62.00;95954.19;5030437;28;24961;-74
2022/06/16 07:11:31;;;;;;;3.97;2.75;;;;;;;22.50;62.17;95962.41;5030739;28;24427;-74
2022/06/16 07:13:58;;;;;;;4.65;2.80;;;;;;;22.94;67.86;95955.78;5030804;28;24416;-75
2022/06/16 07:16:26;;;;;;;5.60;2.72;;;;;;;22.75;66.23;95963.22;5030560;28;24426;-74
2022/06/16 07:18:53;;;;;;;4.53;3.05;;;;;;;23.16;67.81;95970.09;5030324;28;24451;-74
2022/06/16 07:21:19;;;;;;;4.10;2.85;;;;;;;23.41;66.95;95967.41;5030482;28;24424;-75
2022/06/16 07:23:45;;;;;;;6.68;2.70;;;;;;;23.68;60.98;95974.09;5030856;28;24420;-74
2022/06/16 07:26:12;;;;;;;5.72;2.40;;;;;;;23.99;55.44;95976.75;5030384;28;24454;-73
2022/06/16 07:28:38;;;;;;;3.83;2.50;;;;;;;24.43;49.85;95978.78;5030493;28;24446;-74
2022/06/16 07:31:05;;;;;;;3.95;2.47;;;;;;;24.29;49.87;95977.72;5030742;28;24486;-74
2022/06/16 07:33:33;;;;;;;3.80;2.58;;;;;;;23.98;48.36;95984.84;5030803;28;24482;-74
2022/06/16 07:36:00;;;;;;;3.63;2.40;;;;;;;23.94;49.98;95992.28;5030368;28;24431;-74
2022/06/16 07:38:27;;;;;;;4.05;2.63;;;;;;;24.14;49.68;95996.16;5030665;28;24424;-73
2022/06/16 07:41:30;;;;;;;4.37;2.23;;;;;;;24.23;49.56;96001.41;5030451;28;24454;-73
2022/06/16 07:43:41;;;;;;;4.60;2.60;;;;;;;24.59;48.81;95991.09;5030255;28;24420;-73
2022/06/16 07:46:07;;;;;;;5.43;2.42;;;;;;;24.66;49.75;95994.66;5030118;28;24424;-73
2022/06/16 07:48:35;;;;;;;5.65;2.60;;;;;;;24.86;47.95;95993.16;5030493;28;24497;-74
2022/06/16 07:51:01;;;;;;;4.55;2.65;;;;;;;25.00;45.25;95998.66;5030480;28;24424;-74
2022/06/16 07:53:28;;;;;;;4.57;2.60;;;;;;;25.51;43.63;95999.66;5030553;28;24435;-74
2022/06/16 07:55:54;;;;;;;6.20;2.60;;;;;;;24.94;44.09;96002.03;5030291;28;24505;-73
2022/06/16 07:58:21;;;;;;;8.82;2.70;;;;;;;24.31;46.17;96006.63;5030318;28;24469;-74
2022/06/16 08:00:48;;;;;;;6.00;2.83;;;;;;;24.23;46.63;96011.97;5030598;28;24430;-73
2022/06/16 08:03:14;;;;;;;7.68;2.78;;;;;;;24.12;46.91;96015.84;5030146;28;24431;-74
2022/06/16 08:05:43;;;;;;;6.30;3.00;;;;;;;23.86;48.33;96011.69;5030062;28;24477;-74
2022/06/16 08:08:09;;;;;;;6.57;2.63;;;;;;;23.70;49.39;96022.34;5031905;28;24446;-73
2022/06/16 08:10:36;;;;;;;5.93;2.58;;;;;;;23.53;49.97;96023.34;5034005;28;24486;-73
2022/06/16 08:13:03;;;;;;;4.80;2.67;;;;;;;23.51;49.79;96020.91;5027668;28;24531;-73
2022/06/16 08:15:30;;;;;;;3.45;2.40;;;;;;;23.85;50.08;96027.75;5015176;28;24486;-73
2022/06/16 08:17:57;;;;;;;4.32;2.90;;;;;;;23.89;49.08;96029.84;5014481;28;24416;-74
2022/06/16 08:20:24;;;;;;;3.63;2.60;;;;;;;24.28;49.79;96033.44;5013931;28;24436;-73
2022/06/16 08:22:52;;;;;;;6.68;2.88;;;;;;;24.51;49.95;96042.28;5019545;28;25056;-74
2022/06/16 08:25:19;;;;;;;5.82;2.88;;;;;;;24.36;48.70;96042.19;5021946;28;24493;-75
2022/06/16 08:27:49;;;;;;;4.53;2.90;;;;;;;24.48;49.18;96036.50;5023431;28;24857;-73
2022/06/16 08:30:18;;;;;;;8.20;2.70;;;;;;;24.71;48.94;96045.25;5023012;28;24776;-74
2022/06/16 08:32:44;;;;;;;5.15;2.97;;;;;;;24.87;47.44;96047.78;5021278;28;24431;-74
2022/06/16 08:35:12;;;;;;;4.72;2.85;;;;;;;24.81;47.47;96040.56;5021967;28;24432;-74
2022/06/16 08:37:38;;;;;;;6.50;3.17;;;;;;;24.40;47.55;96047.97;5021700;28;24428;-73
2022/06/16 08:40:07;;;;;;;6.05;3.20;;;;;;;24.38;47.81;96053.41;5023135;28;25234;-73
2022/06/16 08:42:41;;;;;;;6.20;3.20;;;;;;;24.47;47.22;96058.66;5022635;28;24482;-73
2022/06/16 08:45:22;;;;;;;4.72;3.20;;;;;;;24.19;46.64;96061.78;5016991;28;24451;-74
2022/06/16 08:47:55;;;;;;;6.97;3.03;;;;;;;24.39;48.06;96065.66;5013730;28;24826;-73
2022/06/16 08:50:33;;;;;;;4.28;3.10;;;;;;;24.59;47.14;96070.53;5013806;28;24428;-74
2022/06/16 08:53:12;;;;;;;6.27;2.93;;;;;;;24.49;46.63;96086.63;5013279;28;24458;-74
2022/06/16 08:55:52;;;;;;;5.13;2.97;;;;;;;24.60;45.94;96083.56;5013137;28;24420;-75
2022/06/16 08:58:28;;;;;;;9.43;2.92;;;;;;;24.48;45.06;96095.56;5013307;28;24478;-74
2022/06/16 09:00:59;;;;;;;5.63;3.10;;;;;;;24.39;46.31;96093.97;5013138;28;24993;-74
2022/06/16 09:03:30;;;;;;;10.50;3.33;;;;;;;24.56;46.68;96094.69;5013178;28;24424;-73
2022/06/16 09:06:01;;;;;;;7.03;3.30;;;;;;;24.59;45.54;96089.06;5012982;28;24829;-75
2022/06/16 09:08:47;;;;;;;8.32;3.20;;;;;;;24.55;46.04;96095.72;5013109;28;24444;-74
2022/06/16 09:11:33;;;;;;;5.55;3.13;;;;;;;24.79;43.92;96098.19;5013066;28;24431;-74
2022/06/16 09:17:32;;;;;;;7.25;3.13;;;;;;;24.78;43.66;96103.66;5004448;28;24510;-73
2022/06/16 09:20:08;;;;;;;11.95;3.05;;;;;;;24.97;43.67;96108.47;5012042;28;24961;-73
2022/06/16 09:22:56;;;;;;;5.70;2.60;;;;;;;25.17;43.03;96106.19;5012921;28;24496;-73
2022/06/16 09:25:35;;;;;;;4.53;2.90;;;;;;;24.91;42.21;96103.88;5012612;28;24794;-73
2022/06/16 09:28:10;;;;;;;8.05;2.78;;;;;;;24.99;41.81;96097.69;5012717;28;24448;-73
2022/06/16 09:30:42;;;;;;;6.43;2.90;;;;;;;25.44;41.39;96096.84;5012535;28;24420;-75
2022/06/16 09:33:14;;;;;;;9.60;3.27;;;;;;;25.55;41.49;96100.88;5012816;28;24519;-73
2022/06/16 09:35:44;;;;;;;4.97;2.67;;;;;;;25.28;40.76;96097.81;5012358;28;24435;-73
2022/06/16 09:38:18;;;;;;;5.57;2.88;;;;;;;25.39;41.84;96101.03;5012773;28;24423;-73
2022/06/16 09:40:49;;;;;;;6.47;2.67;;;;;;;25.33;40.84;96099.94;5012878;28;24440;-73
2022/06/16 09:43:22;;;;;;;7.88;2.80;;;;;;;25.69;42.83;96091.28;5012330;28;24436;-73
2022/06/16 09:45:53;;;;;;;4.22;2.90;;;;;;;25.60;40.49;96101.16;5012092;28;24981;-73
2022/06/16 09:48:24;;;;;;;7.15;2.90;;;;;;;25.44;41.24;96102.16;5012427;28;24539;-73
2022/06/16 09:50:56;;;;;;;4.23;2.63;;;;;;;25.85;40.59;96092.97;5012313;28;24429;-73
2022/06/16 09:53:30;;;;;;;3.90;2.70;;;;;;;25.78;41.23;96096.34;5012241;28;24435;-73
2022/06/16 09:56:03;;;;;;;7.25;3.10;;;;;;;25.32;40.44;96098.25;5012165;28;24958;-73
2022/06/16 09:58:37;;;;;;;3.63;2.58;;;;;;;25.60;40.71;96098.50;5012073;28;24838;-73
2022/06/16 10:01:07;;;;;;;3.10;2.50;;;;;;;25.93;40.04;96096.34;5012417;28;24794;-75
2022/06/16 10:03:39;;;;;;;6.28;2.95;;;;;;;25.59;40.84;96110.13;5012014;28;25004;-74
2022/06/16 10:06:14;;;;;;;4.38;2.75;;;;;;;25.42;40.95;96116.56;5011529;28;24475;-74
2022/06/16 10:08:47;;;;;;;5.10;2.90;;;;;;;25.60;40.72;96106.44;5011980;28;25126;-75
2022/06/16 10:11:19;;;;;;;5.60;2.40;;;;;;;25.81;40.53;96119.03;5011943;28;24447;-74
2022/06/16 10:13:53;;;;;;;4.45;2.53;;;;;;;26.04;41.43;96119.75;5011835;28;24436;-75
2022/06/16 10:16:28;;;;;;;5.70;3.10;;;;;;;26.17;39.85;96121.75;5011539;28;24860;-75
2022/06/16 10:18:54;;;;;;;3.42;2.38;;;;;;;26.56;39.94;96133.91;5011520;28;24987;-74
2022/06/16 10:21:21;;;;;;;4.25;3.00;;;;;;;26.99;39.32;96123.31;5011932;28;24585;-75
2022/06/16 10:23:52;;;;;;;7.72;2.67;;;;;;;26.95;39.82;96145.97;5011701;28;24419;-73
2022/06/16 10:26:19;;;;;;;7.25;2.70;;;;;;;26.95;39.05;96145.97;5011436;28;24422;-74
2022/06/16 10:29:03;;;;;;;5.70;2.60;;;;;;;26.61;41.69;96144.78;5011337;28;25044;-75
2022/06/16 10:31:46;;;;;;;4.78;2.70;;;;;;;26.13;40.12;96144.38;5010645;28;24431;-74
2022/06/16 10:34:20;;;;;;;5.22;2.90;;;;;;;26.29;41.33;96144.19;5011563;28;24849;-73
2022/06/16 10:36:54;;;;;;;2.88;2.33;;;;;;;25.96;41.62;96141.09;5011156;28;24428;-74
2022/06/16 10:39:24;;;;;;;4.47;2.88;;;;;;;25.90;40.91;96143.66;5011219;28;24510;-76
2022/06/16 10:41:55;;;;;;;5.57;3.20;;;;;;;26.01;41.09;96146.66;5011815;28;24420;-75
2022/06/16 10:44:24;;;;;;;3.92;2.60;;;;;;;25.96;41.69;96158.84;5011776;28;24420;-75
2022/06/16 10:46:55;;;;;;;7.03;2.83;;;;;;;26.08;41.01;96162.69;5011050;28;24524;-75
2022/06/16 10:49:26;;;;;;;5.75;2.47;;;;;;;25.82;42.23;96161.31;5010947;28;24460;-75
2022/06/16 10:51:56;;;;;;;5.25;2.90;;;;;;;25.93;41.32;96169.81;5016176;28;24790;-75
2022/06/16 10:54:29;;;;;;;10.10;3.05;;;;;;;25.96;43.20;96177.44;5021113;28;24429;-75
2022/06/16 10:57:07;;;;;;;5.97;3.10;;;;;;;25.73;42.36;96172.94;5021484;28;24431;-76
2022/06/16 10:59:41;;;;;;;6.13;2.80;;;;;;;25.77;42.42;96178.72;5018748;28;24489;-75
2022/06/16 11:02:18;;;;;;;4.87;2.87;;;;;;;25.97;42.07;96179.06;5021669;28;24789;-75
2022/06/16 11:04:45;;;;;;;7.50;3.13;;;;;;;25.85;42.50;96178.69;5021655;28;24424;-75
2022/06/16 11:07:18;;;;;;;6.22;3.10;;;;;;;26.04;41.68;96180.00;5021706;28;24437;-75
2022/06/16 11:09:45;;;;;;;3.07;2.70;;;;;;;26.50;40.43;96175.31;5019959;28;24504;-75
2022/06/16 11:12:18;;;;;;;5.53;2.70;;;;;;;26.17;40.84;96179.34;5020970;28;24431;-75
2022/06/16 11:14:53;;;;;;;8.07;3.23;;;;;;;26.37;41.59;96182.28;5021316;28;24434;-75
2022/06/16 11:17:23;;;;;;;7.63;3.00;;;;;;;26.15;41.22;96190.16;5022844;28;24435;-75
2022/06/16 11:19:52;;;;;;;8.40;2.63;;;;;;;26.33;40.87;96188.94;5021646;28;24432;-75
2022/06/16 11:22:29;;;;;;;4.40;2.70;;;;;;;26.13;42.30;96186.03;5018582;28;24431;-75
2022/06/16 11:25:00;;;;;;;6.95;2.85;;;;;;;26.28;42.65;96189.50;5019383;28;24436;-75
2022/06/16 11:27:28;;;;;;;6.15;2.83;;;;;;;26.23;41.27;96183.91;5018828;28;24494;-75
2022/06/16 11:29:56;;;;;;;5.68;2.90;;;;;;;26.57;41.77;96191.31;5019694;28;24982;-75
2022/06/16 11:32:28;;;;;;;7.68;3.40;;;;;;;26.75;41.11;96197.06;5019076;28;24502;-75
2022/06/16 11:34:55;;;;;;;9.98;3.58;;;;;;;26.17;41.45;96182.00;5021025;28;24493;-76
2022/06/16 11:37:41;;;;;;;6.75;2.90;;;;;;;26.63;42.07;96195.09;5020859;28;24436;-76
2022/06/16 11:40:19;;;;;;;5.35;2.63;;;;;;;26.83;40.35;96184.69;5021268;28;24424;-75
2022/06/16 11:42:58;;;;;;;10.02;2.85;;;;;;;26.75;40.18;96188.28;5022504;28;24443;-75
2022/06/16 11:45:32;;;;;;;3.92;3.08;;;;;;;26.64;40.90;96186.09;5025011;28;24459;-75
2022/06/16 11:48:06;;;;;;;4.32;3.00;;;;;;;26.36;41.16;96183.25;5024326;28;24471;-75
2022/06/16 11:50:41;;;;;;;4.50;2.70;;;;;;;26.50;41.80;96191.25;5024841;28;24985;-75
2022/06/16 11:53:20;;;;;;;5.57;3.05;;;;;;;26.50;41.40;96185.09;5025447;28;24435;-79
2022/06/16 11:55:51;;;;;;;10.18;3.28;;;;;;;26.57;41.92;96191.31;5023682;28;24822;-75
2022/06/16 11:58:36;;;;;;;7.97;2.77;;;;;;;26.37;40.81;96187.59;5023662;28;24432;-74
2022/06/16 12:01:11;;;;;;;5.78;2.70;;;;;;;26.19;41.57;96186.13;5024837;28;25064;-75
2022/06/16 12:03:53;;;;;;;5.10;2.88;;;;;;;26.30;41.14;96187.50;5024822;28;24440;-75
2022/06/16 12:06:36;;;;;;;7.85;2.60;;;;;;;26.44;38.88;96189.31;5023916;28;24436;-74